sensor_id;sensor_type;location;lat;lon;timestamp;pressure;altitude;pressure_sealevel;temperature;humidity
34454;BME280;60061;52.080;5.312;2023-01-25T00:00:33;103756.0;;;2.06;100.0
34454;BME280;60061;52.080;5.312;2023-01-25T00:02:10;103748.0;;;2.09;100.0
34454;BME280;60061;52.080;5.312;2023-01-25T00:03:46;103747.0;;;2.09;100.0
34454;BME280;60061;52.080;5.312;2023-01-25T00:06:59;103744.0;;;2.23;100.0
34454;BME280;60061;52.080;5.312;2023-01-25T00:08:37;103739.00000000001;;;2.17;100.0
34454;BME280;60061;52.080;5.312;2023-01-25T00:10:14;103734.99999999999;;;2.19;100.0
34454;BME280;60061;52.080;5.312;2023-01-25T00:11:52;103733.0;;;1.83;100.0
34454;BME280;60061;52.080;5.312;2023-01-25T00:15:06;103733.99999999999;;;1.79;100.0
34454;BME280;60061;52.080;5.312;2023-01-25T00:16:42;103732.0;;;2.12;100.0
34454;BME280;60061;52.080;5.312;2023-01-25T00:18:20;103732.0;;;1.69;100.0
34454;BME280;60061;52.080;5.312;2023-01-25T00:21:33;103732.0;;;1.84;100.0
34454;BME280;60061;52.080;5.312;2023-01-25T00:23:10;103729.0;;;1.41;100.0
34454;BME280;60061;52.080;5.312;2023-01-25T00:24:46;103730.0;;;1.79;100.0
34454;BME280;60061;52.080;5.312;2023-01-25T00:27:58;103726.0;;;2.02;100.0
34454;BME280;60061;52.080;5.312;2023-01-25T00:29:34;103718.0;;;1.95;100.0
34454;BME280;60061;52.080;5.312;2023-01-25T00:31:16;103720.0;;;1.89;100.0
34454;BME280;60061;52.080;5.312;2023-01-25T00:33:01;103718.0;;;1.98;100.0
34454;BME280;60061;52.080;5.312;2023-01-25T00:36:32;103711.99999999999;;;2.05;100.0
34454;BME280;60061;52.080;5.312;2023-01-25T00:38:26;103717.0;;;2.08;100.0
34454;BME280;60061;52.080;5.312;2023-01-25T00:40:07;103720.0;;;2.13;100.0
34454;BME280;60061;52.080;5.312;2023-01-25T00:41:45;103709.99999999999;;;2.11;100.0
34454;BME280;60061;52.080;5.312;2023-01-25T00:43:21;103717.0;;;1.98;100.0
34454;BME280;60061;52.080;5.312;2023-01-25T00:46:34;103713.00000000001;;;2.12;100.0
34454;BME280;60061;52.080;5.312;2023-01-25T00:48:11;103717.0;;;2.05;100.0
34454;BME280;60061;52.080;5.312;2023-01-25T00:49:47;103705.0;;;2.1;100.0
34454;BME280;60061;52.080;5.312;2023-01-25T00:53:00;103707.0;;;2.1;100.0
34454;BME280;60061;52.080;5.312;2023-01-25T00:54:37;103707.0;;;2.11;100.0
34454;BME280;60061;52.080;5.312;2023-01-25T00:56:14;103705.0;;;2.07;100.0
34454;BME280;60061;52.080;5.312;2023-01-25T00:57:51;103705.0;;;1.9;100.0
34454;BME280;60061;52.080;5.312;2023-01-25T01:01:03;103703.0;;;2.04;100.0
34454;BME280;60061;52.080;5.312;2023-01-25T01:02:39;103698.0;;;2.06;100.0
34454;BME280;60061;52.080;5.312;2023-01-25T01:04:15;103699.0;;;2.09;100.0
34454;BME280;60061;52.080;5.312;2023-01-25T01:07:36;103699.0;;;2.07;100.0
34454;BME280;60061;52.080;5.312;2023-01-25T01:09:15;103705.0;;;1.93;100.0
34454;BME280;60061;52.080;5.312;2023-01-25T01:10:57;103707.0;;;1.87;100.0
34454;BME280;60061;52.080;5.312;2023-01-25T01:12:34;103704.0;;;1.87;100.0
34454;BME280;60061;52.080;5.312;2023-01-25T01:15:47;103707.0;;;1.63;100.0
34454;BME280;60061;52.080;5.312;2023-01-25T01:17:23;103701.0;;;1.8;100.0
34454;BME280;60061;52.080;5.312;2023-01-25T01:19:00;103709.99999999999;;;1.6;100.0
34454;BME280;60061;52.080;5.312;2023-01-25T01:22:13;103707.0;;;1.9;100.0
34454;BME280;60061;52.080;5.312;2023-01-25T01:23:49;103705.0;;;1.8;100.0
34454;BME280;60061;52.080;5.312;2023-01-25T01:25:25;103704.0;;;1.91;100.0
34454;BME280;60061;52.080;5.312;2023-01-25T01:28:39;103698.0;;;1.93;100.0
34454;BME280;60061;52.080;5.312;2023-01-25T01:30:16;103700.0;;;1.99;100.0
34454;BME280;60061;52.080;5.312;2023-01-25T01:31:52;103702.0;;;1.82;100.0
34454;BME280;60061;52.080;5.312;2023-01-25T01:33:29;103708.0;;;1.86;100.0
34454;BME280;60061;52.080;5.312;2023-01-25T01:36:43;103704.0;;;1.75;100.0
34454;BME280;60061;52.080;5.312;2023-01-25T01:38:20;103705.0;;;1.62;100.0
34454;BME280;60061;52.080;5.312;2023-01-25T01:39:57;103702.0;;;1.69;100.0
34454;BME280;60061;52.080;5.312;2023-01-25T01:43:16;103698.0;;;1.69;100.0
34454;BME280;60061;52.080;5.312;2023-01-25T01:44:53;103702.0;;;1.91;100.0
34454;BME280;60061;52.080;5.312;2023-01-25T01:46:32;103696.0;;;1.86;100.0
34454;BME280;60061;52.080;5.312;2023-01-25T01:48:14;103695.0;;;1.77;100.0
34454;BME280;60061;52.080;5.312;2023-01-25T01:51:42;103696.0;;;1.81;100.0
34454;BME280;60061;52.080;5.312;2023-01-25T01:53:21;103692.0;;;1.78;100.0
34454;BME280;60061;52.080;5.312;2023-01-25T01:55:02;103693.0;;;1.81;100.0
34454;BME280;60061;52.080;5.312;2023-01-25T01:56:47;103692.0;;;1.84;100.0
34454;BME280;60061;52.080;5.312;2023-01-25T02:00:09;103683.0;;;1.87;100.0
34454;BME280;60061;52.080;5.312;2023-01-25T02:01:49;103683.99999999999;;;1.76;100.0
34454;BME280;60061;52.080;5.312;2023-01-25T02:03:27;103684.99999999999;;;1.73;100.0
34454;BME280;60061;52.080;5.312;2023-01-25T02:05:08;103689.00000000001;;;1.82;100.0
34454;BME280;60061;52.080;5.312;2023-01-25T02:08:31;103688.00000000001;;;1.64;100.0
34454;BME280;60061;52.080;5.312;2023-01-25T02:10:10;103686.99999999999;;;1.9;100.0
34454;BME280;60061;52.080;5.312;2023-01-25T02:11:48;103683.99999999999;;;1.9;100.0
34454;BME280;60061;52.080;5.312;2023-01-25T02:13:27;103686.99999999999;;;1.87;100.0
34454;BME280;60061;52.080;5.312;2023-01-25T02:16:42;103677.0;;;2.0;100.0
34454;BME280;60061;52.080;5.312;2023-01-25T02:18:19;103673.0;;;1.84;100.0
34454;BME280;60061;52.080;5.312;2023-01-25T02:19:59;103671.0;;;1.89;100.0
34454;BME280;60061;52.080;5.312;2023-01-25T02:21:40;103674.0;;;2.02;100.0
34454;BME280;60061;52.080;5.312;2023-01-25T02:25:06;103673.0;;;1.59;100.0
34454;BME280;60061;52.080;5.312;2023-01-25T02:26:43;103676.0;;;1.67;100.0
34454;BME280;60061;52.080;5.312;2023-01-25T02:28:25;103675.0;;;1.87;100.0
34454;BME280;60061;52.080;5.312;2023-01-25T02:30:04;103669.0;;;1.81;100.0
34454;BME280;60061;52.080;5.312;2023-01-25T02:33:21;103666.00000000001;;;1.82;100.0
34454;BME280;60061;52.080;5.312;2023-01-25T02:34:58;103667.0;;;1.79;100.0
34454;BME280;60061;52.080;5.312;2023-01-25T02:36:34;103668.0;;;1.8;100.0
34454;BME280;60061;52.080;5.312;2023-01-25T02:39:51;103669.0;;;1.87;100.0
34454;BME280;60061;52.080;5.312;2023-01-25T02:41:32;103667.0;;;1.8;100.0
34454;BME280;60061;52.080;5.312;2023-01-25T02:43:10;103668.0;;;1.82;100.0
34454;BME280;60061;52.080;5.312;2023-01-25T02:44:47;103659.99999999999;;;1.77;100.0
34454;BME280;60061;52.080;5.312;2023-01-25T02:48:05;103658.99999999999;;;1.73;100.0
34454;BME280;60061;52.080;5.312;2023-01-25T02:51:18;103659.99999999999;;;1.91;100.0
34454;BME280;60061;52.080;5.312;2023-01-25T02:52:55;103659.99999999999;;;1.8;100.0
34454;BME280;60061;52.080;5.312;2023-01-25T02:56:08;103659.99999999999;;;1.94;100.0
34454;BME280;60061;52.080;5.312;2023-01-25T02:57:44;103659.99999999999;;;1.95;100.0
34454;BME280;60061;52.080;5.312;2023-01-25T02:59:20;103650.0;;;1.9;100.0
34454;BME280;60061;52.080;5.312;2023-01-25T03:02:35;103653.0;;;1.87;100.0
34454;BME280;60061;52.080;5.312;2023-01-25T03:04:11;103649.0;;;1.92;100.0
34454;BME280;60061;52.080;5.312;2023-01-25T03:05:48;103646.0;;;1.85;100.0
34454;BME280;60061;52.080;5.312;2023-01-25T03:09:01;103646.0;;;1.93;100.0
34454;BME280;60061;52.080;5.312;2023-01-25T03:10:38;103641.00000000001;;;1.83;100.0
34454;BME280;60061;52.080;5.312;2023-01-25T03:12:14;103638.00000000001;;;1.86;100.0
34454;BME280;60061;52.080;5.312;2023-01-25T03:13:51;103633.0;;;1.81;100.0
34454;BME280;60061;52.080;5.312;2023-01-25T03:18:41;103633.0;;;1.84;100.0
34454;BME280;60061;52.080;5.312;2023-01-25T03:20:17;103633.99999999999;;;1.85;100.0
34454;BME280;60061;52.080;5.312;2023-01-25T03:23:30;103634.99999999999;;;1.8;100.0
34454;BME280;60061;52.080;5.312;2023-01-25T03:25:07;103631.0;;;1.78;100.0
34454;BME280;60061;52.080;5.312;2023-01-25T03:27:17;103632.0;;;1.6;100.0
34454;BME280;60061;52.080;5.312;2023-01-25T03:28:53;103629.0;;;1.73;100.0
34454;BME280;60061;52.080;5.312;2023-01-25T03:32:07;103627.0;;;1.79;100.0
34454;BME280;60061;52.080;5.312;2023-01-25T03:33:44;103628.0;;;1.77;100.0
34454;BME280;60061;52.080;5.312;2023-01-25T03:35:21;103624.0;;;1.76;100.0
34454;BME280;60061;52.080;5.312;2023-01-25T03:36:56;103624.0;;;1.79;100.0
34454;BME280;60061;52.080;5.312;2023-01-25T03:40:11;103615.00000000001;;;1.66;100.0
34454;BME280;60061;52.080;5.312;2023-01-25T03:41:48;103608.0;;;1.52;100.0
34454;BME280;60061;52.080;5.312;2023-01-25T03:43:24;103602.0;;;1.59;100.0
34454;BME280;60061;52.080;5.312;2023-01-25T03:46:36;103604.0;;;1.6;100.0
34454;BME280;60061;52.080;5.312;2023-01-25T03:48:12;103596.0;;;1.74;100.0
34454;BME280;60061;52.080;5.312;2023-01-25T03:49:49;103595.0;;;1.7;100.0
34454;BME280;60061;52.080;5.312;2023-01-25T03:53:06;103590.00000000001;;;1.87;100.0
34454;BME280;60061;52.080;5.312;2023-01-25T03:54:42;103593.0;;;1.8;100.0
34454;BME280;60061;52.080;5.312;2023-01-25T03:56:19;103595.0;;;1.75;100.0
34454;BME280;60061;52.080;5.312;2023-01-25T03:57:55;103591.00000000001;;;1.81;100.0
34454;BME280;60061;52.080;5.312;2023-01-25T04:01:08;103595.0;;;1.82;100.0
34454;BME280;60061;52.080;5.312;2023-01-25T04:02:44;103595.0;;;1.81;100.0
34454;BME280;60061;52.080;5.312;2023-01-25T04:04:20;103595.0;;;1.79;100.0
34454;BME280;60061;52.080;5.312;2023-01-25T04:07:33;103595.0;;;1.76;100.0
34454;BME280;60061;52.080;5.312;2023-01-25T04:09:10;103599.0;;;1.83;100.0
34454;BME280;60061;52.080;5.312;2023-01-25T04:10:49;103592.0;;;1.78;100.0
34454;BME280;60061;52.080;5.312;2023-01-25T04:12:26;103596.0;;;1.86;100.0
34454;BME280;60061;52.080;5.312;2023-01-25T04:15:38;103594.0;;;1.79;100.0
34454;BME280;60061;52.080;5.312;2023-01-25T04:17:14;103592.0;;;1.79;100.0
34454;BME280;60061;52.080;5.312;2023-01-25T04:18:50;103595.0;;;1.66;100.0
34454;BME280;60061;52.080;5.312;2023-01-25T04:22:04;103592.0;;;1.73;100.0
34454;BME280;60061;52.080;5.312;2023-01-25T04:23:41;103596.0;;;1.86;100.0
34454;BME280;60061;52.080;5.312;2023-01-25T04:25:17;103595.0;;;1.5;100.0
34454;BME280;60061;52.080;5.312;2023-01-25T04:28:31;103592.0;;;1.74;100.0
34454;BME280;60061;52.080;5.312;2023-01-25T04:30:09;103596.0;;;1.64;100.0
34454;BME280;60061;52.080;5.312;2023-01-25T04:31:45;103592.0;;;1.7;100.0
34454;BME280;60061;52.080;5.312;2023-01-25T04:33:21;103590.00000000001;;;1.55;100.0
34454;BME280;60061;52.080;5.312;2023-01-25T04:36:34;103584.99999999999;;;1.6;100.0
34454;BME280;60061;52.080;5.312;2023-01-25T04:38:11;103578.0;;;1.61;100.0
34454;BME280;60061;52.080;5.312;2023-01-25T04:39:48;103576.0;;;1.66;100.0
34454;BME280;60061;52.080;5.312;2023-01-25T04:43:05;103575.0;;;1.77;100.0
34454;BME280;60061;52.080;5.312;2023-01-25T04:44:41;103574.0;;;1.7;100.0
34454;BME280;60061;52.080;5.312;2023-01-25T04:46:17;103574.0;;;1.41;100.0
34454;BME280;60061;52.080;5.312;2023-01-25T04:49:33;103566.00000000001;;;1.52;100.0
34454;BME280;60061;52.080;5.312;2023-01-25T04:51:09;103557.0;;;1.51;100.0
34454;BME280;60061;52.080;5.312;2023-01-25T04:52:45;103555.0;;;1.42;100.0
34454;BME280;60061;52.080;5.312;2023-01-25T04:54:21;103555.0;;;1.53;100.0
34454;BME280;60061;52.080;5.312;2023-01-25T04:57:34;103559.99999999999;;;1.63;100.0
34454;BME280;60061;52.080;5.312;2023-01-25T04:59:10;103557.0;;;1.37;100.0
34454;BME280;60061;52.080;5.312;2023-01-25T05:00:46;103556.0;;;1.16;100.0
34454;BME280;60061;52.080;5.312;2023-01-25T05:03:58;103556.0;;;1.3;100.0
34454;BME280;60061;52.080;5.312;2023-01-25T05:05:35;103558.99999999999;;;1.16;100.0
34454;BME280;60061;52.080;5.312;2023-01-25T05:07:10;103558.0;;;1.35;100.0
34454;BME280;60061;52.080;5.312;2023-01-25T05:10:23;103558.0;;;1.48;100.0
34454;BME280;60061;52.080;5.312;2023-01-25T05:11:59;103564.00000000001;;;1.59;100.0
34454;BME280;60061;52.080;5.312;2023-01-25T05:13:35;103563.00000000001;;;1.54;100.0
34454;BME280;60061;52.080;5.312;2023-01-25T05:15:11;103561.99999999999;;;1.41;100.0
34454;BME280;60061;52.080;5.312;2023-01-25T05:18:25;103557.0;;;1.55;100.0
34454;BME280;60061;52.080;5.312;2023-01-25T05:20:01;103556.0;;;1.6;100.0
34454;BME280;60061;52.080;5.312;2023-01-25T05:22:12;103551.0;;;1.47;100.0
34454;BME280;60061;52.080;5.312;2023-01-25T05:23:49;103553.0;;;1.52;100.0
34454;BME280;60061;52.080;5.312;2023-01-25T05:29:04;103553.0;;;1.32;100.0
34454;BME280;60061;52.080;5.312;2023-01-25T05:30:40;103547.0;;;1.45;100.0
34454;BME280;60061;52.080;5.312;2023-01-25T05:32:18;103548.0;;;0.82;100.0
34454;BME280;60061;52.080;5.312;2023-01-25T05:35:31;103546.0;;;1.12;100.0
34454;BME280;60061;52.080;5.312;2023-01-25T05:37:09;103543.0;;;0.89;100.0
34454;BME280;60061;52.080;5.312;2023-01-25T05:38:47;103542.0;;;0.78;100.0
34454;BME280;60061;52.080;5.312;2023-01-25T05:40:23;103546.0;;;0.94;100.0
34454;BME280;60061;52.080;5.312;2023-01-25T05:43:35;103550.0;;;0.63;100.0
34454;BME280;60061;52.080;5.312;2023-01-25T05:45:11;103544.0;;;1.08;100.0
34454;BME280;60061;52.080;5.312;2023-01-25T05:46:48;103543.0;;;1.06;100.0
34454;BME280;60061;52.080;5.312;2023-01-25T05:50:01;103545.0;;;1.2;100.0
34454;BME280;60061;52.080;5.312;2023-01-25T05:51:40;103551.0;;;1.2;100.0
34454;BME280;60061;52.080;5.312;2023-01-25T05:53:16;103551.0;;;1.08;100.0
34454;BME280;60061;52.080;5.312;2023-01-25T05:56:29;103544.0;;;1.14;100.0
34454;BME280;60061;52.080;5.312;2023-01-25T05:58:05;103555.0;;;1.19;100.0
34454;BME280;60061;52.080;5.312;2023-01-25T05:59:41;103556.0;;;1.08;100.0
34454;BME280;60061;52.080;5.312;2023-01-25T06:01:18;103558.99999999999;;;1.05;100.0
34454;BME280;60061;52.080;5.312;2023-01-25T06:04:35;103554.0;;;1.05;100.0
34454;BME280;60061;52.080;5.312;2023-01-25T06:06:11;103555.0;;;1.1;100.0
34454;BME280;60061;52.080;5.312;2023-01-25T06:07:49;103552.0;;;1.21;100.0
34454;BME280;60061;52.080;5.312;2023-01-25T06:11:06;103554.0;;;1.25;100.0
34454;BME280;60061;52.080;5.312;2023-01-25T06:12:42;103561.99999999999;;;1.29;100.0
34454;BME280;60061;52.080;5.312;2023-01-25T06:14:18;103559.99999999999;;;1.21;100.0
34454;BME280;60061;52.080;5.312;2023-01-25T06:15:55;103563.00000000001;;;1.23;100.0
34454;BME280;60061;52.080;5.312;2023-01-25T06:19:11;103561.99999999999;;;1.18;100.0
34454;BME280;60061;52.080;5.312;2023-01-25T06:20:48;103554.0;;;1.36;100.0
34454;BME280;60061;52.080;5.312;2023-01-25T06:22:25;103555.0;;;1.44;100.0
34454;BME280;60061;52.080;5.312;2023-01-25T06:27:13;103554.0;;;1.13;100.0
34454;BME280;60061;52.080;5.312;2023-01-25T06:28:49;103551.0;;;1.32;100.0
34454;BME280;60061;52.080;5.312;2023-01-25T06:32:02;103556.0;;;1.2;100.0
34454;BME280;60061;52.080;5.312;2023-01-25T06:33:39;103561.99999999999;;;1.07;100.0
34454;BME280;60061;52.080;5.312;2023-01-25T06:35:16;103558.0;;;1.24;100.0
34454;BME280;60061;52.080;5.312;2023-01-25T06:36:52;103564.00000000001;;;1.21;100.0
34454;BME280;60061;52.080;5.312;2023-01-25T06:40:08;103555.0;;;1.16;100.0
34454;BME280;60061;52.080;5.312;2023-01-25T06:41:46;103556.0;;;1.07;100.0
34454;BME280;60061;52.080;5.312;2023-01-25T06:43:22;103557.0;;;1.15;100.0
34454;BME280;60061;52.080;5.312;2023-01-25T06:46:34;103558.99999999999;;;1.19;100.0
34454;BME280;60061;52.080;5.312;2023-01-25T06:48:10;103549.0;;;1.16;100.0
34454;BME280;60061;52.080;5.312;2023-01-25T06:49:46;103554.0;;;1.07;100.0
34454;BME280;60061;52.080;5.312;2023-01-25T06:52:59;103546.0;;;1.17;100.0
34454;BME280;60061;52.080;5.312;2023-01-25T06:54:35;103550.0;;;1.14;100.0
34454;BME280;60061;52.080;5.312;2023-01-25T06:56:13;103550.0;;;1.29;100.0
34454;BME280;60061;52.080;5.312;2023-01-25T06:57:50;103550.0;;;1.4;100.0
34454;BME280;60061;52.080;5.312;2023-01-25T07:01:04;103552.0;;;1.33;100.0
34454;BME280;60061;52.080;5.312;2023-01-25T07:02:42;103545.0;;;1.32;100.0
34454;BME280;60061;52.080;5.312;2023-01-25T07:04:18;103549.0;;;1.4;100.0
34454;BME280;60061;52.080;5.312;2023-01-25T07:07:34;103552.0;;;1.38;100.0
34454;BME280;60061;52.080;5.312;2023-01-25T07:09:12;103549.0;;;1.21;100.0
34454;BME280;60061;52.080;5.312;2023-01-25T07:10:53;103542.0;;;1.33;100.0
34454;BME280;60061;52.080;5.312;2023-01-25T07:12:30;103533.0;;;1.34;100.0
34454;BME280;60061;52.080;5.312;2023-01-25T07:15:42;103529.0;;;1.37;100.0
34454;BME280;60061;52.080;5.312;2023-01-25T07:17:18;103532.0;;;1.33;100.0
34454;BME280;60061;52.080;5.312;2023-01-25T07:18:54;103526.0;;;1.31;100.0
34454;BME280;60061;52.080;5.312;2023-01-25T07:22:07;103522.0;;;1.42;100.0
34454;BME280;60061;52.080;5.312;2023-01-25T07:23:43;103524.0;;;1.43;100.0
34454;BME280;60061;52.080;5.312;2023-01-25T07:25:19;103529.0;;;1.25;100.0
34454;BME280;60061;52.080;5.312;2023-01-25T07:28:31;103526.0;;;1.08;100.0
34454;BME280;60061;52.080;5.312;2023-01-25T07:30:10;103529.0;;;1.06;100.0
34454;BME280;60061;52.080;5.312;2023-01-25T07:31:46;103527.0;;;1.14;100.0
34454;BME280;60061;52.080;5.312;2023-01-25T07:33:23;103526.0;;;1.06;100.0
34454;BME280;60061;52.080;5.312;2023-01-25T07:36:36;103525.0;;;1.14;100.0
34454;BME280;60061;52.080;5.312;2023-01-25T07:38:12;103529.0;;;1.0;100.0
34454;BME280;60061;52.080;5.312;2023-01-25T07:39:49;103530.0;;;1.17;100.0
34454;BME280;60061;52.080;5.312;2023-01-25T07:43:03;103527.0;;;1.27;100.0
34454;BME280;60061;52.080;5.312;2023-01-25T07:44:38;103530.0;;;1.23;100.0
34454;BME280;60061;52.080;5.312;2023-01-25T07:46:16;103528.0;;;1.19;100.0
34454;BME280;60061;52.080;5.312;2023-01-25T07:49:29;103530.0;;;0.99;100.0
34454;BME280;60061;52.080;5.312;2023-01-25T07:51:21;103529.0;;;1.05;100.0
34454;BME280;60061;52.080;5.312;2023-01-25T07:52:59;103522.0;;;0.98;100.0
34454;BME280;60061;52.080;5.312;2023-01-25T07:54:35;103520.0;;;0.74;100.0
34454;BME280;60061;52.080;5.312;2023-01-25T07:57:47;103518.0;;;0.75;100.0
34454;BME280;60061;52.080;5.312;2023-01-25T07:59:24;103516.00000000001;;;0.88;100.0
34454;BME280;60061;52.080;5.312;2023-01-25T08:01:09;103520.0;;;0.84;100.0
34454;BME280;60061;52.080;5.312;2023-01-25T08:02:48;103513.00000000001;;;1.08;100.0
34454;BME280;60061;52.080;5.312;2023-01-25T08:06:05;103505.0;;;1.05;100.0
34454;BME280;60061;52.080;5.312;2023-01-25T08:07:41;103505.0;;;0.98;100.0
34454;BME280;60061;52.080;5.312;2023-01-25T08:09:18;103500.0;;;0.96;100.0
34454;BME280;60061;52.080;5.312;2023-01-25T08:10:54;103497.0;;;0.89;100.0
34454;BME280;60061;52.080;5.312;2023-01-25T08:14:10;103492.0;;;1.01;100.0
34454;BME280;60061;52.080;5.312;2023-01-25T08:15:52;103495.0;;;0.97;100.0
34454;BME280;60061;52.080;5.312;2023-01-25T08:17:31;103498.0;;;0.99;100.0
34454;BME280;60061;52.080;5.312;2023-01-25T08:20:46;103505.0;;;0.95;100.0
34454;BME280;60061;52.080;5.312;2023-01-25T08:22:23;103500.0;;;1.0;100.0
34454;BME280;60061;52.080;5.312;2023-01-25T08:24:01;103499.0;;;1.0;100.0
34454;BME280;60061;52.080;5.312;2023-01-25T08:25:39;103501.0;;;0.98;100.0
34454;BME280;60061;52.080;5.312;2023-01-25T08:28:54;103496.0;;;0.85;100.0
34454;BME280;60061;52.080;5.312;2023-01-25T08:30:30;103504.0;;;0.87;100.0
34454;BME280;60061;52.080;5.312;2023-01-25T08:32:07;103502.0;;;0.99;100.0
34454;BME280;60061;52.080;5.312;2023-01-25T08:35:22;103502.0;;;1.02;100.0
34454;BME280;60061;52.080;5.312;2023-01-25T08:36:59;103508.0;;;0.62;100.0
34454;BME280;60061;52.080;5.312;2023-01-25T08:38:36;103506.0;;;0.85;100.0
34454;BME280;60061;52.080;5.312;2023-01-25T08:40:13;103504.0;;;0.88;100.0
34454;BME280;60061;52.080;5.312;2023-01-25T08:43:30;103506.0;;;0.79;100.0
34454;BME280;60061;52.080;5.312;2023-01-25T08:45:07;103503.0;;;0.91;100.0
34454;BME280;60061;52.080;5.312;2023-01-25T08:46:44;103495.0;;;0.89;100.0
34454;BME280;60061;52.080;5.312;2023-01-25T08:49:57;103491.00000000001;;;0.89;100.0
34454;BME280;60061;52.080;5.312;2023-01-25T08:51:34;103486.99999999999;;;0.82;100.0
34454;BME280;60061;52.080;5.312;2023-01-25T08:53:10;103490.00000000001;;;0.82;100.0
34454;BME280;60061;52.080;5.312;2023-01-25T08:56:23;103486.99999999999;;;0.93;100.0
34454;BME280;60061;52.080;5.312;2023-01-25T08:57:59;103484.99999999999;;;0.62;100.0
34454;BME280;60061;52.080;5.312;2023-01-25T08:59:35;103486.99999999999;;;0.5;100.0
34454;BME280;60061;52.080;5.312;2023-01-25T09:01:13;103476.0;;;0.42;100.0
34454;BME280;60061;52.080;5.312;2023-01-25T09:04:27;103477.0;;;0.24;100.0
34454;BME280;60061;52.080;5.312;2023-01-25T09:06:05;103475.0;;;0.46;100.0
34454;BME280;60061;52.080;5.312;2023-01-25T09:07:41;103476.0;;;0.63;100.0
34454;BME280;60061;52.080;5.312;2023-01-25T09:10:53;103471.0;;;0.67;100.0
34454;BME280;60061;52.080;5.312;2023-01-25T09:12:30;103479.0;;;0.7;100.0
34454;BME280;60061;52.080;5.312;2023-01-25T09:14:07;103475.0;;;0.82;100.0
34454;BME280;60061;52.080;5.312;2023-01-25T09:17:20;103470.0;;;0.84;100.0
34454;BME280;60061;52.080;5.312;2023-01-25T09:18:59;103472.0;;;0.79;100.0
34454;BME280;60061;52.080;5.312;2023-01-25T09:20:37;103466.00000000001;;;0.9;100.0
34454;BME280;60061;52.080;5.312;2023-01-25T09:22:14;103466.00000000001;;;0.86;100.0
34454;BME280;60061;52.080;5.312;2023-01-25T09:25:29;103467.0;;;0.95;100.0
34454;BME280;60061;52.080;5.312;2023-01-25T09:27:05;103463.00000000001;;;0.75;100.0
34454;BME280;60061;52.080;5.312;2023-01-25T09:28:42;103467.0;;;0.43;100.0
34454;BME280;60061;52.080;5.312;2023-01-25T09:31:57;103458.99999999999;;;0.72;100.0
34454;BME280;60061;52.080;5.312;2023-01-25T09:33:35;103465.00000000001;;;0.85;100.0
34454;BME280;60061;52.080;5.312;2023-01-25T09:35:13;103463.00000000001;;;0.78;100.0
34454;BME280;60061;52.080;5.312;2023-01-25T09:36:49;103464.00000000001;;;0.9;100.0
34454;BME280;60061;52.080;5.312;2023-01-25T09:40:04;103461.99999999999;;;0.92;100.0
34454;BME280;60061;52.080;5.312;2023-01-25T09:42:00;103459.99999999999;;;0.67;100.0
34454;BME280;60061;52.080;5.312;2023-01-25T09:44:54;103459.99999999999;;;0.66;100.0
34454;BME280;60061;52.080;5.312;2023-01-25T09:47:08;103461.99999999999;;;0.61;100.0
34454;BME280;60061;52.080;5.312;2023-01-25T09:48:56;103451.0;;;0.64;100.0
34454;BME280;60061;52.080;5.312;2023-01-25T09:50:51;103447.0;;;0.91;100.0
34454;BME280;60061;52.080;5.312;2023-01-25T09:52:54;103448.0;;;1.08;100.0
34454;BME280;60061;52.080;5.312;2023-01-25T09:54:43;103447.0;;;1.02;100.0
34454;BME280;60061;52.080;5.312;2023-01-25T09:56:24;103448.0;;;0.98;100.0
34454;BME280;60061;52.080;5.312;2023-01-25T09:58:03;103453.0;;;1.01;100.0
34454;BME280;60061;52.080;5.312;2023-01-25T09:59:46;103452.0;;;1.08;100.0
34454;BME280;60061;52.080;5.312;2023-01-25T10:03:14;103457.0;;;0.93;100.0
34454;BME280;60061;52.080;5.312;2023-01-25T10:04:58;103446.0;;;0.73;100.0
34454;BME280;60061;52.080;5.312;2023-01-25T10:06:39;103444.0;;;0.56;100.0
34454;BME280;60061;52.080;5.312;2023-01-25T10:08:23;103449.0;;;0.68;100.0
34454;BME280;60061;52.080;5.312;2023-01-25T10:11:47;103442.0;;;0.87;100.0
34454;BME280;60061;52.080;5.312;2023-01-25T10:13:24;103442.0;;;0.63;100.0
34454;BME280;60061;52.080;5.312;2023-01-25T10:15:01;103430.0;;;0.58;100.0
34454;BME280;60061;52.080;5.312;2023-01-25T10:16:57;103429.0;;;0.58;100.0
34454;BME280;60061;52.080;5.312;2023-01-25T10:18:44;103425.0;;;0.44;100.0
34454;BME280;60061;52.080;5.312;2023-01-25T10:22:18;103425.0;;;0.18;100.0
34454;BME280;60061;52.080;5.312;2023-01-25T10:24:21;103426.0;;;0.38;100.0
34454;BME280;60061;52.080;5.312;2023-01-25T10:27:39;103416.00000000001;;;0.53;100.0
34454;BME280;60061;52.080;5.312;2023-01-25T10:29:20;103415.00000000001;;;0.2;100.0
34454;BME280;60061;52.080;5.312;2023-01-25T10:32:39;103408.0;;;0.56;100.0
34454;BME280;60061;52.080;5.312;2023-01-25T10:34:18;103401.0;;;0.59;100.0
34454;BME280;60061;52.080;5.312;2023-01-25T10:35:58;103403.0;;;0.54;100.0
34454;BME280;60061;52.080;5.312;2023-01-25T10:37:37;103393.0;;;0.66;100.0
34454;BME280;60061;52.080;5.312;2023-01-25T10:40:57;103392.0;;;0.77;100.0
34454;BME280;60061;52.080;5.312;2023-01-25T10:42:48;103386.99999999999;;;0.91;100.0
34454;BME280;60061;52.080;5.312;2023-01-25T10:44:38;103391.00000000001;;;0.71;100.0
34454;BME280;60061;52.080;5.312;2023-01-25T10:46:18;103381.0;;;0.94;100.0
34454;BME280;60061;52.080;5.312;2023-01-25T10:48:00;103376.0;;;0.95;100.0
34454;BME280;60061;52.080;5.312;2023-01-25T10:51:28;103373.0;;;0.93;100.0
34454;BME280;60061;52.080;5.312;2023-01-25T10:53:21;103379.0;;;0.85;100.0
34454;BME280;60061;52.080;5.312;2023-01-25T10:55:11;103376.0;;;0.97;100.0
34454;BME280;60061;52.080;5.312;2023-01-25T10:56:51;103372.0;;;1.03;100.0
34454;BME280;60061;52.080;5.312;2023-01-25T10:58:29;103366.00000000001;;;0.77;100.0
34454;BME280;60061;52.080;5.312;2023-01-25T11:02:24;103363.00000000001;;;0.66;100.0
34454;BME280;60061;52.080;5.312;2023-01-25T11:04:24;103352.0;;;0.63;100.0
34454;BME280;60061;52.080;5.312;2023-01-25T11:06:05;103348.0;;;0.77;100.0